sensor_id;sensor_type;location;lat;lon;timestamp;pressure;altitude;pressure_sealevel;temperature;humidity
56604;BME280;42486;47.478;19.036;2023-10-09T05:03:48;101133.38;;;10.64;55.81
56604;BME280;42486;47.478;19.036;2023-10-09T06:58:51;101090.69;;;11.46;48.32
56604;BME280;42486;47.478;19.036;2023-10-09T10:04:12;100863.25;;;14.58;39.06
56604;BME280;42486;47.478;19.036;2023-10-09T10:07:48;100851.41;;;14.84;37.63
56604;BME280;42486;47.478;19.036;2023-10-09T18:56:14;100461.34;;;11.42;100.00
56604;BME280;42486;47.478;19.036;2023-10-09T18:59:17;100451.72;;;11.07;100.00
56604;BME280;42486;47.478;19.036;2023-10-09T19:02:25;100446.97;;;11.01;100.00
56604;BME280;42486;47.478;19.036;2023-10-09T19:05:28;100447.72;;;10.90;100.00
56604;BME280;42486;47.478;19.036;2023-10-09T19:08:31;100441.56;;;10.91;100.00
56604;BME280;42486;47.478;19.036;2023-10-09T19:11:35;100450.69;;;10.86;100.00
56604;BME280;42486;47.478;19.036;2023-10-09T19:14:41;100459.53;;;10.72;100.00
56604;BME280;42486;47.478;19.036;2023-10-09T19:17:44;100459.41;;;10.73;100.00
56604;BME280;42486;47.478;19.036;2023-10-09T19:20:48;100470.31;;;10.67;100.00
56604;BME280;42486;47.478;19.036;2023-10-09T19:23:50;100469.22;;;10.58;100.00
56604;BME280;42486;47.478;19.036;2023-10-09T19:26:54;100463.59;;;10.52;100.00
56604;BME280;42486;47.478;19.036;2023-10-09T19:29:56;100466.88;;;10.43;100.00
56604;BME280;42486;47.478;19.036;2023-10-09T19:32:59;100466.34;;;10.25;100.00
56604;BME280;42486;47.478;19.036;2023-10-09T19:36:06;100461.75;;;10.15;100.00
56604;BME280;42486;47.478;19.036;2023-10-09T19:39:16;100464.66;;;10.24;100.00
56604;BME280;42486;47.478;19.036;2023-10-09T19:42:19;100486.72;;;10.20;100.00
56604;BME280;42486;47.478;19.036;2023-10-09T19:45:23;100489.34;;;10.20;100.00
56604;BME280;42486;47.478;19.036;2023-10-09T19:48:25;100490.59;;;10.27;100.00
56604;BME280;42486;47.478;19.036;2023-10-09T19:51:28;100490.78;;;10.24;100.00
56604;BME280;42486;47.478;19.036;2023-10-09T19:54:33;100485.91;;;10.19;100.00
56604;BME280;42486;47.478;19.036;2023-10-09T19:57:39;100488.00;;;10.14;100.00
56604;BME280;42486;47.478;19.036;2023-10-09T20:00:42;100491.66;;;10.11;100.00
56604;BME280;42486;47.478;19.036;2023-10-09T20:03:45;100498.31;;;10.15;100.00
56604;BME280;42486;47.478;19.036;2023-10-09T20:06:47;100498.81;;;10.21;100.00
56604;BME280;42486;47.478;19.036;2023-10-09T20:09:50;100504.47;;;10.14;100.00
56604;BME280;42486;47.478;19.036;2023-10-09T20:12:52;100503.53;;;10.15;100.00
56604;BME280;42486;47.478;19.036;2023-10-09T20:15:57;100512.41;;;10.13;100.00
56604;BME280;42486;47.478;19.036;2023-10-09T20:18:59;100510.44;;;10.17;100.00
56604;BME280;42486;47.478;19.036;2023-10-09T20:22:02;100517.53;;;10.14;100.00
56604;BME280;42486;47.478;19.036;2023-10-09T20:25:09;100510.75;;;10.12;100.00
56604;BME280;42486;47.478;19.036;2023-10-09T20:28:15;100518.59;;;9.99;100.00
56604;BME280;42486;47.478;19.036;2023-10-09T20:31:19;100516.19;;;9.96;100.00
56604;BME280;42486;47.478;19.036;2023-10-09T20:34:23;100513.56;;;9.96;100.00
56604;BME280;42486;47.478;19.036;2023-10-09T20:37:27;100520.78;;;9.92;100.00
56604;BME280;42486;47.478;19.036;2023-10-09T20:40:32;100519.63;;;9.97;100.00
56604;BME280;42486;47.478;19.036;2023-10-09T20:43:37;100524.53;;;10.01;100.00
56604;BME280;42486;47.478;19.036;2023-10-09T20:46:44;100525.50;;;10.00;100.00
56604;BME280;42486;47.478;19.036;2023-10-09T20:49:50;100505.53;;;9.99;100.00
56604;BME280;42486;47.478;19.036;2023-10-09T20:52:53;100511.69;;;9.98;100.00
56604;BME280;42486;47.478;19.036;2023-10-09T20:55:56;100512.09;;;10.05;100.00
56604;BME280;42486;47.478;19.036;2023-10-09T20:59:00;100515.13;;;10.11;100.00
56604;BME280;42486;47.478;19.036;2023-10-09T21:02:05;100510.53;;;10.02;100.00
56604;BME280;42486;47.478;19.036;2023-10-09T21:05:09;100520.56;;;10.08;100.00
56604;BME280;42486;47.478;19.036;2023-10-09T21:08:16;100524.41;;;10.15;100.00
56604;BME280;42486;47.478;19.036;2023-10-09T21:11:19;100521.72;;;9.91;100.00
56604;BME280;42486;47.478;19.036;2023-10-09T21:14:25;100532.06;;;9.93;100.00
56604;BME280;42486;47.478;19.036;2023-10-09T21:17:28;100538.53;;;10.00;100.00
56604;BME280;42486;47.478;19.036;2023-10-09T21:20:31;100537.06;;;10.09;100.00
56604;BME280;42486;47.478;19.036;2023-10-09T21:23:36;100540.19;;;10.14;100.00
56604;BME280;42486;47.478;19.036;2023-10-09T21:26:39;100550.56;;;10.03;100.00
56604;BME280;42486;47.478;19.036;2023-10-09T21:29:43;100545.84;;;9.95;100.00
56604;BME280;42486;47.478;19.036;2023-10-09T21:32:47;100550.41;;;9.91;100.00
56604;BME280;42486;47.478;19.036;2023-10-09T21:35:55;100550.31;;;9.93;100.00
56604;BME280;42486;47.478;19.036;2023-10-09T21:38:58;100552.72;;;9.96;100.00
56604;BME280;42486;47.478;19.036;2023-10-09T21:42:02;100543.84;;;9.86;100.00
56604;BME280;42486;47.478;19.036;2023-10-09T21:45:10;100551.25;;;9.79;100.00
56604;BME280;42486;47.478;19.036;2023-10-09T21:48:13;100541.34;;;9.72;100.00
56604;BME280;42486;47.478;19.036;2023-10-09T21:51:19;100542.16;;;9.59;100.00
56604;BME280;42486;47.478;19.036;2023-10-09T21:54:26;100549.75;;;9.50;100.00
56604;BME280;42486;47.478;19.036;2023-10-09T21:57:31;100553.78;;;9.41;100.00
56604;BME280;42486;47.478;19.036;2023-10-09T22:00:33;100555.69;;;9.39;100.00
56604;BME280;42486;47.478;19.036;2023-10-09T22:03:36;100549.72;;;9.37;100.00
56604;BME280;42486;47.478;19.036;2023-10-09T22:06:42;100547.44;;;9.45;100.00
56604;BME280;42486;47.478;19.036;2023-10-09T22:09:46;100538.59;;;9.47;100.00
56604;BME280;42486;47.478;19.036;2023-10-09T22:12:48;100548.59;;;9.54;100.00
56604;BME280;42486;47.478;19.036;2023-10-09T22:15:51;100551.44;;;9.63;100.00
56604;BME280;42486;47.478;19.036;2023-10-09T22:18:54;100553.06;;;9.52;100.00
56604;BME280;42486;47.478;19.036;2023-10-09T22:22:14;100554.59;;;9.29;100.00
56604;BME280;42486;47.478;19.036;2023-10-09T22:25:17;100557.31;;;9.27;100.00
56604;BME280;42486;47.478;19.036;2023-10-09T22:28:19;100551.25;;;9.26;100.00
56604;BME280;42486;47.478;19.036;2023-10-09T22:31:22;100561.56;;;9.28;100.00
56604;BME280;42486;47.478;19.036;2023-10-09T22:34:24;100553.31;;;9.21;100.00
56604;BME280;42486;47.478;19.036;2023-10-09T22:37:30;100549.88;;;9.21;100.00
56604;BME280;42486;47.478;19.036;2023-10-09T22:40:42;100539.34;;;9.22;100.00
56604;BME280;42486;47.478;19.036;2023-10-09T22:43:54;100548.50;;;9.15;100.00
56604;BME280;42486;47.478;19.036;2023-10-09T22:46:57;100545.16;;;9.13;100.00
56604;BME280;42486;47.478;19.036;2023-10-09T22:50:02;100538.25;;;8.99;100.00
56604;BME280;42486;47.478;19.036;2023-10-09T22:53:20;100529.13;;;8.92;100.00
56604;BME280;42486;47.478;19.036;2023-10-09T22:56:35;100535.09;;;8.94;100.00
56604;BME280;42486;47.478;19.036;2023-10-09T22:59:40;100531.81;;;8.91;100.00
56604;BME280;42486;47.478;19.036;2023-10-09T23:02:53;100525.00;;;9.02;100.00
56604;BME280;42486;47.478;19.036;2023-10-09T23:06:03;100533.44;;;9.06;100.00
56604;BME280;42486;47.478;19.036;2023-10-09T23:09:35;100530.91;;;8.92;100.00
56604;BME280;42486;47.478;19.036;2023-10-09T23:12:39;100532.75;;;8.90;100.00
56604;BME280;42486;47.478;19.036;2023-10-09T23:15:48;100539.56;;;8.92;100.00
56604;BME280;42486;47.478;19.036;2023-10-09T23:18:53;100537.88;;;8.91;100.00
56604;BME280;42486;47.478;19.036;2023-10-09T23:22:15;100536.13;;;8.92;100.00
56604;BME280;42486;47.478;19.036;2023-10-09T23:25:22;100548.59;;;8.87;100.00
56604;BME280;42486;47.478;19.036;2023-10-09T23:28:46;100538.59;;;8.93;100.00
56604;BME280;42486;47.478;19.036;2023-10-09T23:31:54;100542.56;;;9.13;100.00
56604;BME280;42486;47.478;19.036;2023-10-09T23:35:00;100537.63;;;9.09;100.00
56604;BME280;42486;47.478;19.036;2023-10-09T23:38:03;100534.75;;;9.13;100.00
56604;BME280;42486;47.478;19.036;2023-10-09T23:41:25;100533.91;;;9.13;100.00
56604;BME280;42486;47.478;19.036;2023-10-09T23:44:28;100542.63;;;9.12;100.00
56604;BME280;42486;47.478;19.036;2023-10-09T23:47:37;100545.03;;;9.02;100.00
56604;BME280;42486;47.478;19.036;2023-10-09T23:50:43;100537.47;;;9.24;100.00
56604;BME280;42486;47.478;19.036;2023-10-09T23:53:47;100541.38;;;9.32;100.00
56604;BME280;42486;47.478;19.036;2023-10-09T23:57:06;100538.09;;;9.15;100.00
